sensor_id;sensor_type;location;lat;lon;timestamp;pressure;altitude;pressure_sealevel;temperature;humidity
47366;BME280;33105;47.964;7.982;2023-05-09T00:00:51;97007.97;;;12.81;100.00
47366;BME280;33105;47.964;7.982;2023-05-09T00:03:53;97010.72;;;12.81;100.00
47366;BME280;33105;47.964;7.982;2023-05-09T00:06:54;97001.97;;;12.84;100.00
47366;BME280;33105;47.964;7.982;2023-05-09T00:09:56;97004.72;;;12.84;100.00
47366;BME280;33105;47.964;7.982;2023-05-09T00:12:57;96999.22;;;12.89;100.00
47366;BME280;33105;47.964;7.982;2023-05-09T00:15:59;97010.75;;;12.86;100.00
47366;BME280;33105;47.964;7.982;2023-05-09T00:19:01;97002.78;;;12.84;100.00
47366;BME280;33105;47.964;7.982;2023-05-09T00:22:03;97002.22;;;12.87;100.00
47366;BME280;33105;47.964;7.982;2023-05-09T00:25:06;96995.38;;;12.90;100.00
47366;BME280;33105;47.964;7.982;2023-05-09T00:28:07;96984.41;;;12.90;100.00
47366;BME280;33105;47.964;7.982;2023-05-09T00:31:09;96983.84;;;12.78;100.00
47366;BME280;33105;47.964;7.982;2023-05-09T00:34:10;96982.22;;;12.82;100.00
47366;BME280;33105;47.964;7.982;2023-05-09T00:37:11;96973.44;;;12.90;99.61
47366;BME280;33105;47.964;7.982;2023-05-09T00:40:12;96958.63;;;12.76;100.00
47366;BME280;33105;47.964;7.982;2023-05-09T00:43:14;96961.59;;;12.64;100.00
47366;BME280;33105;47.964;7.982;2023-05-09T00:46:16;96952.91;;;12.98;98.16
47366;BME280;33105;47.964;7.982;2023-05-09T00:49:18;96957.81;;;12.95;98.26
47366;BME280;33105;47.964;7.982;2023-05-09T00:52:19;96955.91;;;12.96;98.16
47366;BME280;33105;47.964;7.982;2023-05-09T00:55:23;96960.00;;;12.83;99.55
47366;BME280;33105;47.964;7.982;2023-05-09T00:58:24;96942.16;;;12.76;100.00
47366;BME280;33105;47.964;7.982;2023-05-09T01:01:26;96943.56;;;12.83;99.99
47366;BME280;33105;47.964;7.982;2023-05-09T01:04:27;96938.88;;;12.79;99.86
47366;BME280;33105;47.964;7.982;2023-05-09T01:11:00;96938.06;;;12.78;99.27
47366;BME280;33105;47.964;7.982;2023-05-09T01:21:10;96934.78;;;12.76;98.42
47366;BME280;33105;47.964;7.982;2023-05-09T01:24:19;96931.44;;;12.59;99.97
47366;BME280;33105;47.964;7.982;2023-05-09T01:27:50;96926.22;;;12.52;100.00
47366;BME280;33105;47.964;7.982;2023-05-09T01:30:53;96930.00;;;12.41;100.00
47366;BME280;33105;47.964;7.982;2023-05-09T01:33:57;96935.19;;;12.38;100.00
47366;BME280;33105;47.964;7.982;2023-05-09T01:37:00;96930.28;;;12.35;100.00
47366;BME280;33105;47.964;7.982;2023-05-09T01:40:06;96922.88;;;12.30;100.00
47366;BME280;33105;47.964;7.982;2023-05-09T01:43:08;96926.97;;;12.27;100.00
47366;BME280;33105;47.964;7.982;2023-05-09T01:46:11;96929.41;;;12.24;100.00
47366;BME280;33105;47.964;7.982;2023-05-09T01:49:14;96923.66;;;12.20;100.00
47366;BME280;33105;47.964;7.982;2023-05-09T01:52:17;96915.41;;;12.15;100.00
47366;BME280;33105;47.964;7.982;2023-05-09T01:55:21;96915.13;;;12.12;100.00
47366;BME280;33105;47.964;7.982;2023-05-09T01:58:26;96911.56;;;12.06;100.00
47366;BME280;33105;47.964;7.982;2023-05-09T02:01:28;96913.19;;;12.07;100.00
47366;BME280;33105;47.964;7.982;2023-05-09T02:04:31;96907.16;;;12.05;100.00
47366;BME280;33105;47.964;7.982;2023-05-09T02:07:33;96905.53;;;12.09;99.96
47366;BME280;33105;47.964;7.982;2023-05-09T02:10:35;96905.22;;;12.01;100.00
47366;BME280;33105;47.964;7.982;2023-05-09T02:13:39;96897.53;;;11.98;100.00
47366;BME280;33105;47.964;7.982;2023-05-09T02:16:40;96892.84;;;11.93;100.00
47366;BME280;33105;47.964;7.982;2023-05-09T02:19:42;96890.13;;;11.93;100.00
47366;BME280;33105;47.964;7.982;2023-05-09T02:22:44;96890.38;;;11.91;100.00
47366;BME280;33105;47.964;7.982;2023-05-09T02:25:45;96892.03;;;11.87;100.00
47366;BME280;33105;47.964;7.982;2023-05-09T02:28:48;96887.09;;;11.84;100.00
47366;BME280;33105;47.964;7.982;2023-05-09T02:31:50;96888.16;;;11.78;100.00
47366;BME280;33105;47.964;7.982;2023-05-09T02:34:54;96894.13;;;11.75;100.00
47366;BME280;33105;47.964;7.982;2023-05-09T02:37:56;96889.47;;;11.76;100.00
47366;BME280;33105;47.964;7.982;2023-05-09T02:40:58;96899.28;;;11.72;100.00
47366;BME280;33105;47.964;7.982;2023-05-09T02:44:01;96900.09;;;11.67;100.00
47366;BME280;33105;47.964;7.982;2023-05-09T02:47:04;96890.50;;;11.65;100.00
47366;BME280;33105;47.964;7.982;2023-05-09T02:50:06;96888.84;;;11.58;100.00
47366;BME280;33105;47.964;7.982;2023-05-09T02:53:10;96887.69;;;11.49;100.00
47366;BME280;33105;47.964;7.982;2023-05-09T02:56:12;96885.81;;;11.55;100.00
47366;BME280;33105;47.964;7.982;2023-05-09T02:59:14;96880.84;;;11.52;100.00
47366;BME280;33105;47.964;7.982;2023-05-09T03:02:16;96878.91;;;11.47;100.00
47366;BME280;33105;47.964;7.982;2023-05-09T03:05:17;96885.50;;;11.51;100.00
47366;BME280;33105;47.964;7.982;2023-05-09T03:08:18;96884.94;;;11.49;100.00
47366;BME280;33105;47.964;7.982;2023-05-09T03:11:20;96888.72;;;11.43;100.00
47366;BME280;33105;47.964;7.982;2023-05-09T03:14:22;96894.47;;;11.42;100.00
47366;BME280;33105;47.964;7.982;2023-05-09T03:17:23;96878.88;;;11.42;100.00
47366;BME280;33105;47.964;7.982;2023-05-09T03:20:25;96875.56;;;11.40;100.00
47366;BME280;33105;47.964;7.982;2023-05-09T03:23:27;96877.47;;;11.35;100.00
47366;BME280;33105;47.964;7.982;2023-05-09T03:26:28;96874.75;;;11.35;100.00
47366;BME280;33105;47.964;7.982;2023-05-09T03:29:30;96878.00;;;11.32;100.00
47366;BME280;33105;47.964;7.982;2023-05-09T03:32:31;96865.38;;;11.25;100.00
47366;BME280;33105;47.964;7.982;2023-05-09T03:35:32;96870.59;;;11.27;100.00
47366;BME280;33105;47.964;7.982;2023-05-09T03:38:34;96865.59;;;11.19;100.00
47366;BME280;33105;47.964;7.982;2023-05-09T03:41:36;96872.75;;;11.25;100.00
47366;BME280;33105;47.964;7.982;2023-05-09T03:44:37;96877.41;;;11.24;100.00
47366;BME280;33105;47.964;7.982;2023-05-09T03:47:39;96876.00;;;11.22;100.00
47366;BME280;33105;47.964;7.982;2023-05-09T03:50:40;96869.72;;;11.21;100.00
47366;BME280;33105;47.964;7.982;2023-05-09T03:53:45;96868.91;;;11.21;100.00
47366;BME280;33105;47.964;7.982;2023-05-09T03:56:48;96865.84;;;11.17;100.00
47366;BME280;33105;47.964;7.982;2023-05-09T03:59:49;96862.88;;;11.19;100.00
47366;BME280;33105;47.964;7.982;2023-05-09T04:02:51;96863.13;;;11.12;100.00
47366;BME280;33105;47.964;7.982;2023-05-09T04:06:03;96863.84;;;11.03;100.00
47366;BME280;33105;47.964;7.982;2023-05-09T04:09:10;96873.69;;;11.04;100.00
47366;BME280;33105;47.964;7.982;2023-05-09T04:12:11;96872.47;;;11.21;100.00
47366;BME280;33105;47.964;7.982;2023-05-09T04:15:12;96867.84;;;11.27;100.00
47366;BME280;33105;47.964;7.982;2023-05-09T04:18:14;96865.72;;;11.34;100.00
47366;BME280;33105;47.964;7.982;2023-05-09T04:21:15;96867.94;;;11.42;100.00
47366;BME280;33105;47.964;7.982;2023-05-09T04:24:18;96865.28;;;11.52;100.00
47366;BME280;33105;47.964;7.982;2023-05-09T04:27:22;96865.31;;;11.57;100.00
47366;BME280;33105;47.964;7.982;2023-05-09T04:30:24;96867.00;;;11.74;100.00
47366;BME280;33105;47.964;7.982;2023-05-09T04:33:28;96860.56;;;11.95;100.00
47366;BME280;33105;47.964;7.982;2023-05-09T04:36:34;96857.59;;;12.07;97.40
47366;BME280;33105;47.964;7.982;2023-05-09T04:39:36;96851.78;;;11.93;99.44
47366;BME280;33105;47.964;7.982;2023-05-09T04:42:47;96849.03;;;11.88;100.00
47366;BME280;33105;47.964;7.982;2023-05-09T04:45:48;96856.63;;;11.76;100.00
47366;BME280;33105;47.964;7.982;2023-05-09T04:48:50;96846.22;;;11.73;100.00
47366;BME280;33105;47.964;7.982;2023-05-09T04:51:52;96855.91;;;11.96;100.00
47366;BME280;33105;47.964;7.982;2023-05-09T04:54:53;96852.66;;;12.04;100.00
47366;BME280;33105;47.964;7.982;2023-05-09T04:57:56;96844.19;;;12.15;100.00
47366;BME280;33105;47.964;7.982;2023-05-09T05:00:57;96849.97;;;12.24;100.00
47366;BME280;33105;47.964;7.982;2023-05-09T05:03:59;96835.78;;;12.37;100.00
47366;BME280;33105;47.964;7.982;2023-05-09T05:07:00;96836.31;;;12.44;99.67
47366;BME280;33105;47.964;7.982;2023-05-09T05:10:01;96838.25;;;12.64;96.83
47366;BME280;33105;47.964;7.982;2023-05-09T05:13:03;96847.00;;;12.46;98.48
47366;BME280;33105;47.964;7.982;2023-05-09T05:16:04;96846.22;;;12.55;97.03
47366;BME280;33105;47.964;7.982;2023-05-09T05:19:06;96838.25;;;13.00;92.22
47366;BME280;33105;47.964;7.982;2023-05-09T05:22:11;96840.47;;;13.03;90.38
47366;BME280;33105;47.964;7.982;2023-05-09T05:25:15;96840.44;;;12.92;92.20
47366;BME280;33105;47.964;7.982;2023-05-09T05:28:20;96838.50;;;13.13;91.14
47366;BME280;33105;47.964;7.982;2023-05-09T05:31:21;96835.78;;;13.28;88.61
47366;BME280;33105;47.964;7.982;2023-05-09T05:34:23;96830.03;;;13.35;87.33
47366;BME280;33105;47.964;7.982;2023-05-09T05:37:25;96830.59;;;13.22;90.85
47366;BME280;33105;47.964;7.982;2023-05-09T05:40:26;96822.31;;;13.47;89.51
47366;BME280;33105;47.964;7.982;2023-05-09T05:43:29;96818.72;;;13.52;90.17
47366;BME280;33105;47.964;7.982;2023-05-09T05:46:31;96819.53;;;13.52;91.42
47366;BME280;33105;47.964;7.982;2023-05-09T05:49:32;96817.81;;;13.72;89.32
47366;BME280;33105;47.964;7.982;2023-05-09T05:52:34;96821.66;;;13.76;88.42
47366;BME280;33105;47.964;7.982;2023-05-09T05:55:36;96816.19;;;13.71;88.73
47366;BME280;33105;47.964;7.982;2023-05-09T05:58:40;96823.34;;;13.61;91.45
47366;BME280;33105;47.964;7.982;2023-05-09T06:01:41;96813.72;;;13.64;92.48
47366;BME280;33105;47.964;7.982;2023-05-09T06:04:43;96808.47;;;13.78;92.42
47366;BME280;33105;47.964;7.982;2023-05-09T06:07:45;96807.97;;;13.66;92.52
47366;BME280;33105;47.964;7.982;2023-05-09T06:10:46;96797.25;;;13.64;93.80
47366;BME280;33105;47.964;7.982;2023-05-09T06:13:48;96798.03;;;13.80;93.67
47366;BME280;33105;47.964;7.982;2023-05-09T06:16:49;96795.59;;;14.22;91.18
47366;BME280;33105;47.964;7.982;2023-05-09T06:19:50;96797.81;;;14.64;86.68
47366;BME280;33105;47.964;7.982;2023-05-09T06:22:51;96788.13;;;15.06;85.20
47366;BME280;33105;47.964;7.982;2023-05-09T06:25:53;96787.41;;;15.19;85.20
47366;BME280;33105;47.964;7.982;2023-05-09T06:28:54;96780.06;;;15.39;83.22
47366;BME280;33105;47.964;7.982;2023-05-09T06:31:56;96781.25;;;15.04;86.56
47366;BME280;33105;47.964;7.982;2023-05-09T06:34:57;96781.47;;;14.78;88.23
47366;BME280;33105;47.964;7.982;2023-05-09T06:37:58;96783.38;;;14.83;88.58
47366;BME280;33105;47.964;7.982;2023-05-09T06:40:59;96769.03;;;15.15;86.07
47366;BME280;33105;47.964;7.982;2023-05-09T06:44:01;96757.34;;;15.28;85.79
47366;BME280;33105;47.964;7.982;2023-05-09T06:47:02;96765.31;;;15.29;86.23
47366;BME280;33105;47.964;7.982;2023-05-09T06:50:04;96753.34;;;15.39;85.77
47366;BME280;33105;47.964;7.982;2023-05-09T06:53:05;96743.13;;;15.69;84.07
47366;BME280;33105;47.964;7.982;2023-05-09T06:56:06;96742.13;;;15.59;87.30
47366;BME280;33105;47.964;7.982;2023-05-09T06:59:08;96737.31;;;15.70;82.46
47366;BME280;33105;47.964;7.982;2023-05-09T07:02:13;96739.13;;;15.80;83.96
47366;BME280;33105;47.964;7.982;2023-05-09T07:05:14;96725.72;;;15.73;83.48
47366;BME280;33105;47.964;7.982;2023-05-09T07:08:16;96728.63;;;15.82;84.99
47366;BME280;33105;47.964;7.982;2023-05-09T07:11:17;96727.94;;;16.09;80.25
47366;BME280;33105;47.964;7.982;2023-05-09T07:14:18;96722.78;;;16.07;81.77
47366;BME280;33105;47.964;7.982;2023-05-09T07:17:20;96721.50;;;15.99;85.42
47366;BME280;33105;47.964;7.982;2023-05-09T07:20:21;96719.63;;;16.14;82.02
47366;BME280;33105;47.964;7.982;2023-05-09T07:23:22;96708.47;;;16.05;84.36
47366;BME280;33105;47.964;7.982;2023-05-09T07:26:25;96707.69;;;16.18;82.73
47366;BME280;33105;47.964;7.982;2023-05-09T07:29:26;96709.47;;;16.09;82.99
47366;BME280;33105;47.964;7.982;2023-05-09T07:32:27;96701.13;;;16.14;83.53
47366;BME280;33105;47.964;7.982;2023-05-09T07:35:28;96694.56;;;16.48;78.04
47366;BME280;33105;47.964;7.982;2023-05-09T07:38:30;96687.44;;;16.28;79.05
47366;BME280;33105;47.964;7.982;2023-05-09T07:41:31;96681.56;;;16.16;81.92
47366;BME280;33105;47.964;7.982;2023-05-09T07:44:32;96677.72;;;16.49;79.55
47366;BME280;33105;47.964;7.982;2023-05-09T07:47:33;96681.69;;;16.24;84.87
47366;BME280;33105;47.964;7.982;2023-05-09T07:50:34;96685.28;;;16.25;84.19
47366;BME280;33105;47.964;7.982;2023-05-09T07:53:36;96684.03;;;15.98;83.70
47366;BME280;33105;47.964;7.982;2023-05-09T07:56:37;96672.25;;;16.12;84.09
47366;BME280;33105;47.964;7.982;2023-05-09T07:59:38;96670.31;;;16.31;83.22
47366;BME280;33105;47.964;7.982;2023-05-09T08:02:40;96660.28;;;16.35;84.93
47366;BME280;33105;47.964;7.982;2023-05-09T08:05:41;96656.56;;;16.58;83.62
47366;BME280;33105;47.964;7.982;2023-05-09T08:08:42;96649.84;;;16.51;83.60
47366;BME280;33105;47.964;7.982;2023-05-09T08:11:44;96649.47;;;16.39;83.74
47366;BME280;33105;47.964;7.982;2023-05-09T08:14:45;96642.97;;;16.48;83.96
47366;BME280;33105;47.964;7.982;2023-05-09T08:17:46;96633.78;;;16.99;83.98
47366;BME280;33105;47.964;7.982;2023-05-09T08:20:48;96631.00;;;17.54;78.95
47366;BME280;33105;47.964;7.982;2023-05-09T08:23:49;96627.84;;;17.33;80.64
47366;BME280;33105;47.964;7.982;2023-05-09T08:26:53;96627.66;;;17.16;79.69
47366;BME280;33105;47.964;7.982;2023-05-09T08:29:55;96617.03;;;17.23;80.43
47366;BME280;33105;47.964;7.982;2023-05-09T08:32:56;96622.94;;;17.93;77.28
47366;BME280;33105;47.964;7.982;2023-05-09T08:35:57;96614.34;;;17.95;75.26
47366;BME280;33105;47.964;7.982;2023-05-09T08:38:58;96606.66;;;17.42;78.15
47366;BME280;33105;47.964;7.982;2023-05-09T08:42:00;96606.47;;;17.52;78.72
47366;BME280;33105;47.964;7.982;2023-05-09T08:45:12;96604.19;;;17.68;77.77
47366;BME280;33105;47.964;7.982;2023-05-09T08:48:19;96597.41;;;17.60;78.42
47366;BME280;33105;47.964;7.982;2023-05-09T08:51:23;96599.50;;;17.41;80.60
47366;BME280;33105;47.964;7.982;2023-05-09T08:54:25;96593.66;;;17.56;77.90
47366;BME280;33105;47.964;7.982;2023-05-09T08:57:26;96589.97;;;17.97;77.12
47366;BME280;33105;47.964;7.982;2023-05-09T09:00:28;96584.00;;;18.04;77.40
47366;BME280;33105;47.964;7.982;2023-05-09T09:03:31;96585.75;;;17.77;78.38
47366;BME280;33105;47.964;7.982;2023-05-09T09:06:33;96584.06;;;17.90;76.58
47366;BME280;33105;47.964;7.982;2023-05-09T09:09:35;96578.66;;;18.07;75.99
47366;BME280;33105;47.964;7.982;2023-05-09T09:12:37;96578.41;;;17.73;75.33
47366;BME280;33105;47.964;7.982;2023-05-09T09:15:40;96571.38;;;17.89;73.00
47366;BME280;33105;47.964;7.982;2023-05-09T09:18:42;96574.63;;;18.35;73.32
47366;BME280;33105;47.964;7.982;2023-05-09T09:21:45;96556.94;;;18.45;71.04
47366;BME280;33105;47.964;7.982;2023-05-09T09:24:51;96556.31;;;17.95;73.85
47366;BME280;33105;47.964;7.982;2023-05-09T09:27:52;96551.25;;;18.19;75.94
47366;BME280;33105;47.964;7.982;2023-05-09T09:30:53;96543.88;;;18.37;71.81
47366;BME280;33105;47.964;7.982;2023-05-09T09:33:59;96535.38;;;18.56;71.78
47366;BME280;33105;47.964;7.982;2023-05-09T09:37:01;96534.28;;;18.12;70.47
47366;BME280;33105;47.964;7.982;2023-05-09T09:40:02;96529.22;;;18.36;73.96
47366;BME280;33105;47.964;7.982;2023-05-09T09:43:05;96525.69;;;18.45;70.54
47366;BME280;33105;47.964;7.982;2023-05-09T09:46:07;96525.34;;;18.68;69.06
47366;BME280;33105;47.964;7.982;2023-05-09T09:49:11;96525.31;;;18.29;68.10
47366;BME280;33105;47.964;7.982;2023-05-09T09:52:21;96533.66;;;18.15;71.66
47366;BME280;33105;47.964;7.982;2023-05-09T09:55:23;96518.63;;;18.30;69.20
47366;BME280;33105;47.964;7.982;2023-05-09T09:58:25;96521.63;;;18.42;70.64
47366;BME280;33105;47.964;7.982;2023-05-09T10:01:26;96515.00;;;18.52;71.23
47366;BME280;33105;47.964;7.982;2023-05-09T10:04:31;96512.69;;;18.76;72.00
47366;BME280;33105;47.964;7.982;2023-05-09T10:07:34;96500.44;;;18.68;70.06
47366;BME280;33105;47.964;7.982;2023-05-09T10:10:36;96495.41;;;18.71;68.61
47366;BME280;33105;47.964;7.982;2023-05-09T10:13:37;96493.88;;;18.56;70.96
47366;BME280;33105;47.964;7.982;2023-05-09T10:16:38;96497.19;;;19.41;72.39
47366;BME280;33105;47.964;7.982;2023-05-09T10:19:45;96490.53;;;19.50;69.45
47366;BME280;33105;47.964;7.982;2023-05-09T10:22:49;96482.69;;;19.61;67.40
47366;BME280;33105;47.964;7.982;2023-05-09T10:29:09;96466.88;;;18.61;69.32
47366;BME280;33105;47.964;7.982;2023-05-09T10:32:23;96469.19;;;18.68;72.28
47366;BME280;33105;47.964;7.982;2023-05-09T10:35:32;96459.16;;;18.89;73.32
47366;BME280;33105;47.964;7.982;2023-05-09T10:38:33;96462.44;;;19.09;72.08
47366;BME280;33105;47.964;7.982;2023-05-09T10:41:35;96459.38;;;19.36;70.95
47366;BME280;33105;47.964;7.982;2023-05-09T10:44:39;96460.34;;;19.31;68.30
47366;BME280;33105;47.964;7.982;2023-05-09T10:47:42;96452.81;;;18.97;71.28
47366;BME280;33105;47.964;7.982;2023-05-09T10:50:44;96438.03;;;19.45;69.21
47366;BME280;33105;47.964;7.982;2023-05-09T10:53:48;96439.97;;;19.36;68.92
47366;BME280;33105;47.964;7.982;2023-05-09T10:56:50;96434.75;;;19.09;71.17
47366;BME280;33105;47.964;7.982;2023-05-09T10:59:51;96428.41;;;19.34;69.94
47366;BME280;33105;47.964;7.982;2023-05-09T11:03:06;96421.72;;;19.44;69.48
47366;BME280;33105;47.964;7.982;2023-05-09T11:06:08;96410.84;;;19.30;70.44
47366;BME280;33105;47.964;7.982;2023-05-09T11:12:29;96401.03;;;19.41;71.37
47366;BME280;33105;47.964;7.982;2023-05-09T11:15:30;96397.63;;;19.27;67.82
47366;BME280;33105;47.964;7.982;2023-05-09T11:18:32;96402.00;;;19.11;67.67
47366;BME280;33105;47.964;7.982;2023-05-09T11:21:35;96389.31;;;19.10;67.55
47366;BME280;33105;47.964;7.982;2023-05-09T11:24:37;96377.41;;;19.61;67.81
47366;BME280;33105;47.964;7.982;2023-05-09T11:27:47;96375.78;;;19.43;65.50
47366;BME280;33105;47.964;7.982;2023-05-09T11:30:50;96371.56;;;19.11;69.23
47366;BME280;33105;47.964;7.982;2023-05-09T11:34:00;96364.88;;;18.94;67.55
47366;BME280;33105;47.964;7.982;2023-05-09T11:37:15;96361.91;;;19.34;68.30
47366;BME280;33105;47.964;7.982;2023-05-09T11:40:19;96351.72;;;19.90;67.97
47366;BME280;33105;47.964;7.982;2023-05-09T11:43:21;96348.22;;;19.63;66.03
47366;BME280;33105;47.964;7.982;2023-05-09T11:46:22;96348.41;;;19.41;68.99
47366;BME280;33105;47.964;7.982;2023-05-09T11:49:26;96340.28;;;19.10;67.28
47366;BME280;33105;47.964;7.982;2023-05-09T11:52:31;96338.13;;;19.33;69.33
47366;BME280;33105;47.964;7.982;2023-05-09T11:55:36;96329.38;;;19.14;68.84
47366;BME280;33105;47.964;7.982;2023-05-09T11:58:38;96329.53;;;19.98;66.59
47366;BME280;33105;47.964;7.982;2023-05-09T12:01:39;96322.97;;;20.41;63.98
47366;BME280;33105;47.964;7.982;2023-05-09T12:04:41;96319.94;;;20.25;64.74
47366;BME280;33105;47.964;7.982;2023-05-09T12:07:44;96319.47;;;20.53;64.59
47366;BME280;33105;47.964;7.982;2023-05-09T12:10:45;96317.09;;;20.34;65.48
47366;BME280;33105;47.964;7.982;2023-05-09T12:13:50;96309.09;;;20.32;66.23
47366;BME280;33105;47.964;7.982;2023-05-09T12:16:53;96294.41;;;20.82;62.08
47366;BME280;33105;47.964;7.982;2023-05-09T12:19:57;96300.31;;;20.01;63.33
47366;BME280;33105;47.964;7.982;2023-05-09T12:22:59;96298.06;;;19.94;63.44
47366;BME280;33105;47.964;7.982;2023-05-09T12:26:01;96292.72;;;19.81;64.65
47366;BME280;33105;47.964;7.982;2023-05-09T12:29:02;96287.97;;;19.90;64.50
47366;BME280;33105;47.964;7.982;2023-05-09T12:32:04;96288.47;;;19.83;66.81
47366;BME280;33105;47.964;7.982;2023-05-09T12:35:07;96278.88;;;20.10;65.35
47366;BME280;33105;47.964;7.982;2023-05-09T12:38:20;96276.78;;;20.07;63.34
47366;BME280;33105;47.964;7.982;2023-05-09T12:41:21;96267.00;;;19.72;64.06
47366;BME280;33105;47.964;7.982;2023-05-09T12:44:25;96263.69;;;19.87;63.45
47366;BME280;33105;47.964;7.982;2023-05-09T12:47:27;96272.81;;;20.17;64.69
47366;BME280;33105;47.964;7.982;2023-05-09T12:50:31;96252.91;;;20.86;58.87
47366;BME280;33105;47.964;7.982;2023-05-09T12:53:39;96258.50;;;20.35;64.92
47366;BME280;33105;47.964;7.982;2023-05-09T12:56:41;96264.38;;;20.04;66.25
47366;BME280;33105;47.964;7.982;2023-05-09T12:59:42;96264.84;;;20.15;64.91
47366;BME280;33105;47.964;7.982;2023-05-09T13:02:44;96255.03;;;20.47;64.12
47366;BME280;33105;47.964;7.982;2023-05-09T13:05:56;96249.47;;;20.47;65.63
47366;BME280;33105;47.964;7.982;2023-05-09T13:09:02;96245.06;;;20.67;63.78
47366;BME280;33105;47.964;7.982;2023-05-09T13:12:06;96237.84;;;20.54;63.13
47366;BME280;33105;47.964;7.982;2023-05-09T13:15:10;96230.19;;;20.51;63.38
47366;BME280;33105;47.964;7.982;2023-05-09T13:18:11;96231.13;;;20.76;62.18
47366;BME280;33105;47.964;7.982;2023-05-09T13:21:14;96219.84;;;20.30;64.59
47366;BME280;33105;47.964;7.982;2023-05-09T13:24:15;96222.94;;;20.37;66.08
47366;BME280;33105;47.964;7.982;2023-05-09T13:27:16;96210.97;;;19.95;65.47
47366;BME280;33105;47.964;7.982;2023-05-09T13:30:19;96216.41;;;19.83;65.53
47366;BME280;33105;47.964;7.982;2023-05-09T13:33:20;96215.81;;;19.78;66.91
47366;BME280;33105;47.964;7.982;2023-05-09T13:36:22;96209.84;;;19.58;65.59
47366;BME280;33105;47.964;7.982;2023-05-09T13:39:25;96206.28;;;19.49;65.13
47366;BME280;33105;47.964;7.982;2023-05-09T13:42:27;96201.34;;;19.63;66.71
47366;BME280;33105;47.964;7.982;2023-05-09T13:45:28;96206.56;;;19.65;66.84
47366;BME280;33105;47.964;7.982;2023-05-09T13:48:30;96201.06;;;19.48;67.31
47366;BME280;33105;47.964;7.982;2023-05-09T13:51:31;96198.00;;;19.41;66.34
47366;BME280;33105;47.964;7.982;2023-05-09T13:54:34;96194.66;;;19.18;67.27
47366;BME280;33105;47.964;7.982;2023-05-09T13:57:37;96192.47;;;19.32;66.56
47366;BME280;33105;47.964;7.982;2023-05-09T14:00:38;96195.00;;;19.16;66.29
47366;BME280;33105;47.964;7.982;2023-05-09T14:03:40;96188.34;;;19.55;66.08
47366;BME280;33105;47.964;7.982;2023-05-09T14:06:41;96187.19;;;19.56;67.13
47366;BME280;33105;47.964;7.982;2023-05-09T14:09:48;96184.25;;;19.15;66.69
47366;BME280;33105;47.964;7.982;2023-05-09T14:12:49;96184.41;;;19.18;67.67
47366;BME280;33105;47.964;7.982;2023-05-09T14:15:51;96180.22;;;18.95;69.57
47366;BME280;33105;47.964;7.982;2023-05-09T14:18:52;96180.56;;;18.93;68.49
47366;BME280;33105;47.964;7.982;2023-05-09T14:21:54;96172.91;;;18.90;70.36
47366;BME280;33105;47.964;7.982;2023-05-09T14:24:55;96174.03;;;18.98;70.66
47366;BME280;33105;47.964;7.982;2023-05-09T14:27:57;96175.81;;;19.02;72.53
47366;BME280;33105;47.964;7.982;2023-05-09T14:30:59;96171.97;;;18.78;73.91
47366;BME280;33105;47.964;7.982;2023-05-09T14:34:03;96159.44;;;18.46;74.50
47366;BME280;33105;47.964;7.982;2023-05-09T14:37:06;96163.69;;;18.26;75.36
47366;BME280;33105;47.964;7.982;2023-05-09T14:40:13;96156.22;;;18.18;79.38
47366;BME280;33105;47.964;7.982;2023-05-09T14:43:15;96163.03;;;18.12;79.76
47366;BME280;33105;47.964;7.982;2023-05-09T14:46:17;96162.06;;;18.25;80.86
47366;BME280;33105;47.964;7.982;2023-05-09T14:49:18;96178.16;;;18.14;80.29
47366;BME280;33105;47.964;7.982;2023-05-09T14:52:20;96182.53;;;17.81;83.11
47366;BME280;33105;47.964;7.982;2023-05-09T14:55:21;96192.00;;;17.18;87.14
47366;BME280;33105;47.964;7.982;2023-05-09T14:58:26;96199.25;;;16.74;88.16
47366;BME280;33105;47.964;7.982;2023-05-09T15:01:31;96190.06;;;16.43;92.71
47366;BME280;33105;47.964;7.982;2023-05-09T15:04:33;96189.09;;;16.03;97.76
47366;BME280;33105;47.964;7.982;2023-05-09T15:07:34;96185.28;;;15.76;100.00
47366;BME280;33105;47.964;7.982;2023-05-09T15:10:36;96188.25;;;15.52;100.00
47366;BME280;33105;47.964;7.982;2023-05-09T15:13:38;96190.38;;;15.42;100.00
47366;BME280;33105;47.964;7.982;2023-05-09T15:16:39;96185.69;;;15.42;100.00
47366;BME280;33105;47.964;7.982;2023-05-09T15:19:40;96189.47;;;15.46;100.00
47366;BME280;33105;47.964;7.982;2023-05-09T15:22:46;96189.28;;;15.29;100.00
47366;BME280;33105;47.964;7.982;2023-05-09T15:25:48;96177.66;;;15.32;100.00
47366;BME280;33105;47.964;7.982;2023-05-09T15:28:49;96187.13;;;15.26;100.00
47366;BME280;33105;47.964;7.982;2023-05-09T15:31:50;96186.72;;;15.32;100.00
47366;BME280;33105;47.964;7.982;2023-05-09T15:34:52;96181.09;;;15.51;100.00
47366;BME280;33105;47.964;7.982;2023-05-09T15:37:53;96178.78;;;15.58;100.00
47366;BME280;33105;47.964;7.982;2023-05-09T15:40:54;96185.78;;;15.64;100.00
47366;BME280;33105;47.964;7.982;2023-05-09T15:43:56;96190.84;;;15.85;100.00
47366;BME280;33105;47.964;7.982;2023-05-09T15:46:57;96197.28;;;15.94;100.00
47366;BME280;33105;47.964;7.982;2023-05-09T15:49:59;96198.84;;;15.73;100.00
47366;BME280;33105;47.964;7.982;2023-05-09T15:53:00;96205.19;;;15.59;100.00
47366;BME280;33105;47.964;7.982;2023-05-09T15:56:01;96204.47;;;15.54;100.00
47366;BME280;33105;47.964;7.982;2023-05-09T15:59:03;96203.06;;;15.56;100.00
47366;BME280;33105;47.964;7.982;2023-05-09T16:02:05;96211.06;;;15.39;100.00
47366;BME280;33105;47.964;7.982;2023-05-09T16:05:06;96208.38;;;14.79;100.00
47366;BME280;33105;47.964;7.982;2023-05-09T16:08:08;96214.16;;;14.78;100.00
47366;BME280;33105;47.964;7.982;2023-05-09T16:11:09;96212.31;;;14.73;100.00
47366;BME280;33105;47.964;7.982;2023-05-09T16:14:10;96208.19;;;14.38;100.00
47366;BME280;33105;47.964;7.982;2023-05-09T16:17:13;96206.06;;;14.35;100.00
47366;BME280;33105;47.964;7.982;2023-05-09T16:20:14;96206.97;;;14.30;100.00